sensor_id;sensor_type;location;lat;lon;timestamp;noise_LAeq;noise_LA_min;noise_LA_max;noise_LA01;noise_LA95
77135;Laerm;48586;50.122;18.972;2023-04-23T00:01:04;41.11;34.40;51.81;;
77135;Laerm;48586;50.122;18.972;2023-04-23T00:03:12;38.97;34.35;48.43;;
77135;Laerm;48586;50.122;18.972;2023-04-23T00:05:20;40.62;35.11;49.88;;
77135;Laerm;48586;50.122;18.972;2023-04-23T00:07:27;36.58;34.61;40.46;;
77135;Laerm;48586;50.122;18.972;2023-04-23T00:09:35;42.51;34.95;57.37;;
77135;Laerm;48586;50.122;18.972;2023-04-23T00:11:42;37.78;34.11;45.63;;
77135;Laerm;48586;50.122;18.972;2023-04-23T00:13:48;40.65;34.62;48.46;;
77135;Laerm;48586;50.122;18.972;2023-04-23T00:15:54;38.76;34.01;48.71;;
77135;Laerm;48586;50.122;18.972;2023-04-23T00:17:58;38.39;34.64;50.03;;
77135;Laerm;48586;50.122;18.972;2023-04-23T00:20:06;45.50;35.18;57.50;;
77135;Laerm;48586;50.122;18.972;2023-04-23T00:22:13;39.92;34.58;49.42;;
77135;Laerm;48586;50.122;18.972;2023-04-23T00:24:17;40.11;35.08;49.14;;
77135;Laerm;48586;50.122;18.972;2023-04-23T00:26:25;40.00;35.26;47.37;;
77135;Laerm;48586;50.122;18.972;2023-04-23T00:28:30;42.05;34.55;54.23;;
77135;Laerm;48586;50.122;18.972;2023-04-23T00:30:34;37.50;34.40;53.79;;
77135;Laerm;48586;50.122;18.972;2023-04-23T00:32:40;38.41;34.66;47.15;;
77135;Laerm;48586;50.122;18.972;2023-04-23T00:34:44;38.71;35.07;44.35;;
77135;Laerm;48586;50.122;18.972;2023-04-23T00:36:49;39.85;36.29;45.48;;
77135;Laerm;48586;50.122;18.972;2023-04-23T00:38:54;51.87;40.66;59.04;;
77135;Laerm;48586;50.122;18.972;2023-04-23T00:40:58;43.98;34.55;57.65;;
77135;Laerm;48586;50.122;18.972;2023-04-23T00:43:05;46.94;35.19;58.96;;
77135;Laerm;48586;50.122;18.972;2023-04-23T00:45:11;45.58;34.66;59.41;;
77135;Laerm;48586;50.122;18.972;2023-04-23T00:47:15;39.93;34.28;52.89;;
77135;Laerm;48586;50.122;18.972;2023-04-23T00:49:21;37.34;34.42;47.37;;
77135;Laerm;48586;50.122;18.972;2023-04-23T00:51:27;43.13;34.32;57.18;;
77135;Laerm;48586;50.122;18.972;2023-04-23T00:53:32;41.01;34.32;50.31;;
77135;Laerm;48586;50.122;18.972;2023-04-23T00:55:37;42.10;35.27;52.90;;
77135;Laerm;48586;50.122;18.972;2023-04-23T00:57:42;39.06;34.55;50.72;;
77135;Laerm;48586;50.122;18.972;2023-04-23T00:59:50;41.74;34.60;53.56;;
77135;Laerm;48586;50.122;18.972;2023-04-23T01:01:55;35.67;33.65;46.49;;
77135;Laerm;48586;50.122;18.972;2023-04-23T01:04:01;40.65;34.27;56.61;;
77135;Laerm;48586;50.122;18.972;2023-04-23T01:06:06;40.55;34.25;51.65;;
77135;Laerm;48586;50.122;18.972;2023-04-23T01:08:15;41.60;35.15;50.78;;
77135;Laerm;48586;50.122;18.972;2023-04-23T01:10:21;43.37;34.74;55.46;;
77135;Laerm;48586;50.122;18.972;2023-04-23T01:12:26;38.35;34.34;45.62;;
77135;Laerm;48586;50.122;18.972;2023-04-23T01:14:31;37.99;34.33;44.67;;
77135;Laerm;48586;50.122;18.972;2023-04-23T01:16:38;36.96;34.54;43.77;;
77135;Laerm;48586;50.122;18.972;2023-04-23T01:18:43;38.92;35.02;49.43;;
77135;Laerm;48586;50.122;18.972;2023-04-23T01:20:48;38.78;34.36;51.10;;
77135;Laerm;48586;50.122;18.972;2023-04-23T01:22:56;36.09;34.05;43.45;;
77135;Laerm;48586;50.122;18.972;2023-04-23T01:25:01;38.58;34.17;48.53;;
77135;Laerm;48586;50.122;18.972;2023-04-23T01:27:05;37.15;34.42;46.49;;
77135;Laerm;48586;50.122;18.972;2023-04-23T01:29:11;37.77;34.00;44.86;;
77135;Laerm;48586;50.122;18.972;2023-04-23T01:31:16;40.85;34.25;51.19;;
77135;Laerm;48586;50.122;18.972;2023-04-23T01:33:21;38.68;34.14;48.97;;
77135;Laerm;48586;50.122;18.972;2023-04-23T01:35:28;39.47;34.51;47.21;;
77135;Laerm;48586;50.122;18.972;2023-04-23T01:37:36;40.72;36.27;51.71;;
77135;Laerm;48586;50.122;18.972;2023-04-23T01:39:43;49.94;41.85;58.43;;
77135;Laerm;48586;50.122;18.972;2023-04-23T01:41:50;48.22;36.93;54.94;;
77135;Laerm;48586;50.122;18.972;2023-04-23T01:43:56;42.25;35.25;53.71;;
77135;Laerm;48586;50.122;18.972;2023-04-23T01:46:00;49.04;36.26;56.33;;
77135;Laerm;48586;50.122;18.972;2023-04-23T01:48:05;50.20;38.08;55.69;;
77135;Laerm;48586;50.122;18.972;2023-04-23T01:50:10;39.31;35.13;44.10;;
77135;Laerm;48586;50.122;18.972;2023-04-23T01:52:16;38.63;34.40;46.66;;
77135;Laerm;48586;50.122;18.972;2023-04-23T01:54:20;37.26;34.29;45.17;;
77135;Laerm;48586;50.122;18.972;2023-04-23T01:56:28;39.60;34.99;48.92;;
77135;Laerm;48586;50.122;18.972;2023-04-23T01:58:36;35.94;34.24;39.26;;
77135;Laerm;48586;50.122;18.972;2023-04-23T02:00:40;36.23;34.15;42.44;;
77135;Laerm;48586;50.122;18.972;2023-04-23T02:02:44;35.95;34.06;44.60;;
77135;Laerm;48586;50.122;18.972;2023-04-23T02:04:49;43.21;34.39;55.19;;
77135;Laerm;48586;50.122;18.972;2023-04-23T02:06:55;41.25;34.80;53.28;;
77135;Laerm;48586;50.122;18.972;2023-04-23T02:08:59;37.67;34.67;42.91;;
77135;Laerm;48586;50.122;18.972;2023-04-23T02:11:04;41.07;34.89;55.52;;
77135;Laerm;48586;50.122;18.972;2023-04-23T02:13:11;43.40;34.91;61.61;;
77135;Laerm;48586;50.122;18.972;2023-04-23T02:15:16;46.42;37.49;68.69;;
77135;Laerm;48586;50.122;18.972;2023-04-23T02:17:22;38.48;34.96;48.14;;
77135;Laerm;48586;50.122;18.972;2023-04-23T02:19:26;37.42;34.28;57.40;;
77135;Laerm;48586;50.122;18.972;2023-04-23T02:21:31;37.71;34.24;60.51;;
77135;Laerm;48586;50.122;18.972;2023-04-23T02:23:36;36.29;34.21;44.12;;
77135;Laerm;48586;50.122;18.972;2023-04-23T02:25:40;37.43;34.82;43.75;;
77135;Laerm;48586;50.122;18.972;2023-04-23T02:27:44;39.88;35.48;57.14;;
77135;Laerm;48586;50.122;18.972;2023-04-23T02:29:52;38.71;35.20;45.74;;
77135;Laerm;48586;50.122;18.972;2023-04-23T02:31:56;40.13;34.98;50.27;;
77135;Laerm;48586;50.122;18.972;2023-04-23T02:34:00;37.63;34.40;50.53;;
77135;Laerm;48586;50.122;18.972;2023-04-23T02:36:06;37.35;34.83;47.66;;
77135;Laerm;48586;50.122;18.972;2023-04-23T02:38:12;39.42;35.37;63.63;;
77135;Laerm;48586;50.122;18.972;2023-04-23T02:40:16;40.04;35.10;48.31;;
77135;Laerm;48586;50.122;18.972;2023-04-23T02:42:21;43.41;35.69;54.20;;
77135;Laerm;48586;50.122;18.972;2023-04-23T02:44:25;50.68;39.05;70.57;;
77135;Laerm;48586;50.122;18.972;2023-04-23T02:46:32;41.69;37.69;48.20;;
77135;Laerm;48586;50.122;18.972;2023-04-23T02:48:40;39.54;35.66;43.71;;
77135;Laerm;48586;50.122;18.972;2023-04-23T02:50:44;44.06;35.44;57.18;;
77135;Laerm;48586;50.122;18.972;2023-04-23T02:52:49;40.80;35.21;48.71;;
77135;Laerm;48586;50.122;18.972;2023-04-23T02:54:54;38.30;35.26;45.60;;
77135;Laerm;48586;50.122;18.972;2023-04-23T02:56:58;38.89;35.79;47.32;;
77135;Laerm;48586;50.122;18.972;2023-04-23T02:59:02;45.19;35.24;57.57;;
77135;Laerm;48586;50.122;18.972;2023-04-23T03:01:07;42.87;36.24;63.23;;
77135;Laerm;48586;50.122;18.972;2023-04-23T03:03:14;40.70;35.02;51.36;;
77135;Laerm;48586;50.122;18.972;2023-04-23T03:05:19;42.89;35.41;55.25;;
77135;Laerm;48586;50.122;18.972;2023-04-23T03:07:23;43.07;37.72;53.11;;
77135;Laerm;48586;50.122;18.972;2023-04-23T03:09:27;49.38;41.81;57.25;;
77135;Laerm;48586;50.122;18.972;2023-04-23T03:11:33;46.19;37.34;61.18;;
77135;Laerm;48586;50.122;18.972;2023-04-23T03:13:38;46.14;35.84;62.33;;
77135;Laerm;48586;50.122;18.972;2023-04-23T03:15:42;47.67;36.66;64.02;;
77135;Laerm;48586;50.122;18.972;2023-04-23T03:17:46;48.09;36.58;64.78;;
77135;Laerm;48586;50.122;18.972;2023-04-23T03:19:54;48.82;36.39;66.89;;
77135;Laerm;48586;50.122;18.972;2023-04-23T03:21:59;40.57;35.81;51.99;;
77135;Laerm;48586;50.122;18.972;2023-04-23T03:24:06;40.13;35.96;47.26;;
77135;Laerm;48586;50.122;18.972;2023-04-23T03:26:11;39.40;36.24;44.88;;
77135;Laerm;48586;50.122;18.972;2023-04-23T03:28:15;42.40;36.19;51.21;;
77135;Laerm;48586;50.122;18.972;2023-04-23T03:30:19;39.45;35.97;49.81;;
77135;Laerm;48586;50.122;18.972;2023-04-23T03:32:24;40.23;36.07;47.49;;
77135;Laerm;48586;50.122;18.972;2023-04-23T03:34:28;44.54;36.76;55.11;;
77135;Laerm;48586;50.122;18.972;2023-04-23T03:36:35;45.53;37.32;56.80;;
77135;Laerm;48586;50.122;18.972;2023-04-23T03:38:40;47.22;37.37;76.31;;
77135;Laerm;48586;50.122;18.972;2023-04-23T03:40:45;42.48;36.66;51.19;;
77135;Laerm;48586;50.122;18.972;2023-04-23T03:42:49;50.23;41.38;57.28;;
77135;Laerm;48586;50.122;18.972;2023-04-23T03:45:01;46.99;37.11;56.79;;
77135;Laerm;48586;50.122;18.972;2023-04-23T03:47:05;45.19;36.17;55.74;;
77135;Laerm;48586;50.122;18.972;2023-04-23T03:49:10;47.52;38.16;58.95;;
77135;Laerm;48586;50.122;18.972;2023-04-23T03:51:15;45.08;36.74;58.05;;
77135;Laerm;48586;50.122;18.972;2023-04-23T03:53:25;43.80;37.53;57.40;;
77135;Laerm;48586;50.122;18.972;2023-04-23T03:55:49;45.76;36.41;57.79;;
77135;Laerm;48586;50.122;18.972;2023-04-23T03:57:54;46.36;35.63;58.07;;
77135;Laerm;48586;50.122;18.972;2023-04-23T03:59:59;44.28;35.95;56.00;;
77135;Laerm;48586;50.122;18.972;2023-04-23T04:02:03;41.07;36.42;58.58;;
77135;Laerm;48586;50.122;18.972;2023-04-23T04:04:08;39.48;35.89;46.86;;
77135;Laerm;48586;50.122;18.972;2023-04-23T04:06:12;45.48;37.28;59.48;;
77135;Laerm;48586;50.122;18.972;2023-04-23T04:08:16;45.20;36.56;55.73;;
77135;Laerm;48586;50.122;18.972;2023-04-23T04:10:24;48.92;37.95;67.38;;
77135;Laerm;48586;50.122;18.972;2023-04-23T04:12:28;40.77;35.70;52.18;;
77135;Laerm;48586;50.122;18.972;2023-04-23T04:14:32;46.60;36.42;70.04;;
77135;Laerm;48586;50.122;18.972;2023-04-23T04:16:37;44.94;36.92;55.72;;
77135;Laerm;48586;50.122;18.972;2023-04-23T04:18:41;43.49;36.82;50.78;;
77135;Laerm;48586;50.122;18.972;2023-04-23T04:20:45;43.96;36.02;53.97;;
77135;Laerm;48586;50.122;18.972;2023-04-23T04:22:52;57.33;36.73;81.71;;
77135;Laerm;48586;50.122;18.972;2023-04-23T04:24:56;40.86;36.49;51.79;;
77135;Laerm;48586;50.122;18.972;2023-04-23T04:27:03;39.83;35.97;50.39;;
77135;Laerm;48586;50.122;18.972;2023-04-23T04:29:09;39.82;36.06;58.56;;
77135;Laerm;48586;50.122;18.972;2023-04-23T04:31:13;41.46;37.10;57.11;;
77135;Laerm;48586;50.122;18.972;2023-04-23T04:33:20;39.62;36.09;47.99;;
77135;Laerm;48586;50.122;18.972;2023-04-23T04:35:26;40.25;35.91;49.27;;
77135;Laerm;48586;50.122;18.972;2023-04-23T04:37:31;41.38;36.66;61.03;;
77135;Laerm;48586;50.122;18.972;2023-04-23T04:39:35;43.89;36.35;58.00;;
77135;Laerm;48586;50.122;18.972;2023-04-23T04:41:40;45.39;36.86;67.82;;
77135;Laerm;48586;50.122;18.972;2023-04-23T04:43:47;43.97;36.18;54.76;;
77135;Laerm;48586;50.122;18.972;2023-04-23T04:45:51;43.59;35.91;64.75;;
77135;Laerm;48586;50.122;18.972;2023-04-23T04:47:59;44.94;37.94;57.52;;
77135;Laerm;48586;50.122;18.972;2023-04-23T04:50:05;41.37;36.73;49.90;;
77135;Laerm;48586;50.122;18.972;2023-04-23T04:52:10;38.57;36.19;47.25;;
77135;Laerm;48586;50.122;18.972;2023-04-23T04:54:15;39.63;36.19;46.52;;
77135;Laerm;48586;50.122;18.972;2023-04-23T04:56:19;41.36;36.41;52.52;;
77135;Laerm;48586;50.122;18.972;2023-04-23T04:58:24;41.49;36.04;51.13;;
77135;Laerm;48586;50.122;18.972;2023-04-23T05:00:31;43.73;37.07;55.04;;
77135;Laerm;48586;50.122;18.972;2023-04-23T05:02:35;41.68;37.32;56.81;;
77135;Laerm;48586;50.122;18.972;2023-04-23T05:04:39;43.94;38.33;51.58;;
77135;Laerm;48586;50.122;18.972;2023-04-23T05:06:44;41.16;36.77;51.44;;
77135;Laerm;48586;50.122;18.972;2023-04-23T05:08:48;40.54;36.54;48.49;;
77135;Laerm;48586;50.122;18.972;2023-04-23T05:10:53;44.58;37.47;65.96;;
77135;Laerm;48586;50.122;18.972;2023-04-23T05:12:59;46.86;37.87;69.46;;
77135;Laerm;48586;50.122;18.972;2023-04-23T05:15:04;45.97;38.26;70.00;;
77135;Laerm;48586;50.122;18.972;2023-04-23T05:17:11;74.39;39.55;82.72;;
77135;Laerm;48586;50.122;18.972;2023-04-23T05:19:16;43.25;38.13;51.14;;
77135;Laerm;48586;50.122;18.972;2023-04-23T05:21:20;43.35;37.57;53.28;;
77135;Laerm;48586;50.122;18.972;2023-04-23T05:23:24;44.70;38.04;53.86;;
77135;Laerm;48586;50.122;18.972;2023-04-23T05:25:30;42.81;37.15;54.47;;
77135;Laerm;48586;50.122;18.972;2023-04-23T05:27:37;41.16;36.94;47.98;;
77135;Laerm;48586;50.122;18.972;2023-04-23T05:29:41;41.46;37.41;48.63;;
77135;Laerm;48586;50.122;18.972;2023-04-23T05:31:47;45.31;37.54;56.63;;
77135;Laerm;48586;50.122;18.972;2023-04-23T05:33:54;42.46;36.69;58.29;;
77135;Laerm;48586;50.122;18.972;2023-04-23T05:35:58;41.54;37.01;48.78;;
77135;Laerm;48586;50.122;18.972;2023-04-23T05:38:03;43.16;37.21;53.18;;
77135;Laerm;48586;50.122;18.972;2023-04-23T05:40:09;42.14;37.16;63.44;;
77135;Laerm;48586;50.122;18.972;2023-04-23T05:42:13;49.51;39.18;63.07;;
77135;Laerm;48586;50.122;18.972;2023-04-23T05:44:18;41.38;36.23;49.59;;
77135;Laerm;48586;50.122;18.972;2023-04-23T05:46:22;43.79;37.76;53.22;;
77135;Laerm;48586;50.122;18.972;2023-04-23T05:48:26;42.02;36.77;58.51;;
77135;Laerm;48586;50.122;18.972;2023-04-23T05:50:34;54.11;36.39;76.23;;
77135;Laerm;48586;50.122;18.972;2023-04-23T05:52:38;41.59;36.55;53.53;;
77135;Laerm;48586;50.122;18.972;2023-04-23T05:54:42;46.73;36.45;56.64;;
77135;Laerm;48586;50.122;18.972;2023-04-23T05:56:47;43.69;37.24;55.44;;
77135;Laerm;48586;50.122;18.972;2023-04-23T05:58:52;43.76;36.15;54.48;;
77135;Laerm;48586;50.122;18.972;2023-04-23T06:00:56;41.65;36.54;49.16;;
77135;Laerm;48586;50.122;18.972;2023-04-23T06:03:01;42.47;36.95;55.61;;
77135;Laerm;48586;50.122;18.972;2023-04-23T06:05:07;39.41;36.06;46.16;;
77135;Laerm;48586;50.122;18.972;2023-04-23T06:07:13;42.37;37.12;57.08;;
77135;Laerm;48586;50.122;18.972;2023-04-23T06:09:20;44.70;37.79;56.58;;
77135;Laerm;48586;50.122;18.972;2023-04-23T06:11:25;44.64;37.91;54.27;;
77135;Laerm;48586;50.122;18.972;2023-04-23T06:13:33;44.26;36.55;53.05;;
77135;Laerm;48586;50.122;18.972;2023-04-23T06:15:41;43.73;35.64;54.40;;
77135;Laerm;48586;50.122;18.972;2023-04-23T06:17:46;41.16;36.26;51.94;;
77135;Laerm;48586;50.122;18.972;2023-04-23T06:19:51;42.11;37.15;51.14;;
77135;Laerm;48586;50.122;18.972;2023-04-23T06:21:56;45.66;38.11;66.05;;
77135;Laerm;48586;50.122;18.972;2023-04-23T06:24:05;43.80;37.64;56.96;;
77135;Laerm;48586;50.122;18.972;2023-04-23T06:26:10;46.24;37.65;57.53;;
77135;Laerm;48586;50.122;18.972;2023-04-23T06:28:15;44.93;36.98;56.23;;
77135;Laerm;48586;50.122;18.972;2023-04-23T06:30:44;46.34;37.61;57.48;;
77135;Laerm;48586;50.122;18.972;2023-04-23T06:32:49;47.89;38.03;55.77;;
77135;Laerm;48586;50.122;18.972;2023-04-23T06:34:54;45.41;36.66;56.49;;
77135;Laerm;48586;50.122;18.972;2023-04-23T06:36:58;44.65;37.32;54.25;;
77135;Laerm;48586;50.122;18.972;2023-04-23T06:39:05;48.20;36.90;70.24;;
77135;Laerm;48586;50.122;18.972;2023-04-23T06:41:10;46.73;38.00;64.76;;
77135;Laerm;48586;50.122;18.972;2023-04-23T06:43:15;46.53;37.76;56.67;;
77135;Laerm;48586;50.122;18.972;2023-04-23T06:45:49;48.57;38.20;62.56;;
77135;Laerm;48586;50.122;18.972;2023-04-23T06:47:55;45.56;36.00;68.90;;
77135;Laerm;48586;50.122;18.972;2023-04-23T06:49:59;41.62;36.60;52.05;;
77135;Laerm;48586;50.122;18.972;2023-04-23T06:52:04;45.92;36.72;56.09;;
77135;Laerm;48586;50.122;18.972;2023-04-23T06:54:11;47.82;39.09;55.87;;
77135;Laerm;48586;50.122;18.972;2023-04-23T06:56:16;45.19;37.33;62.47;;
77135;Laerm;48586;50.122;18.972;2023-04-23T06:58:20;47.04;37.64;54.75;;
77135;Laerm;48586;50.122;18.972;2023-04-23T07:00:33;43.56;36.36;55.96;;
77135;Laerm;48586;50.122;18.972;2023-04-23T07:02:38;43.57;36.90;53.81;;
77135;Laerm;48586;50.122;18.972;2023-04-23T07:04:47;47.32;37.43;59.09;;
77135;Laerm;48586;50.122;18.972;2023-04-23T07:06:53;45.46;37.44;63.62;;
77135;Laerm;48586;50.122;18.972;2023-04-23T07:08:58;46.35;37.82;54.76;;
77135;Laerm;48586;50.122;18.972;2023-04-23T07:11:06;44.21;37.36;54.92;;
77135;Laerm;48586;50.122;18.972;2023-04-23T07:13:13;43.15;36.99;54.43;;
77135;Laerm;48586;50.122;18.972;2023-04-23T07:15:17;64.99;37.17;82.22;;
77135;Laerm;48586;50.122;18.972;2023-04-23T07:17:21;77.92;42.25;86.11;;
77135;Laerm;48586;50.122;18.972;2023-04-23T07:19:27;46.83;38.53;52.79;;
77135;Laerm;48586;50.122;18.972;2023-04-23T07:21:32;42.71;36.01;51.83;;
77135;Laerm;48586;50.122;18.972;2023-04-23T07:23:36;45.28;35.76;62.65;;
77135;Laerm;48586;50.122;18.972;2023-04-23T07:25:42;44.33;37.50;57.79;;
77135;Laerm;48586;50.122;18.972;2023-04-23T07:27:49;45.97;36.78;61.27;;
77135;Laerm;48586;50.122;18.972;2023-04-23T07:29:55;45.25;39.05;55.29;;
77135;Laerm;48586;50.122;18.972;2023-04-23T07:32:01;49.40;37.59;61.83;;
77135;Laerm;48586;50.122;18.972;2023-04-23T07:34:06;47.51;36.82;59.88;;
77135;Laerm;48586;50.122;18.972;2023-04-23T07:36:10;43.81;37.28;57.65;;
77135;Laerm;48586;50.122;18.972;2023-04-23T07:38:15;45.34;36.32;57.34;;
77135;Laerm;48586;50.122;18.972;2023-04-23T07:40:20;48.15;39.90;57.27;;
77135;Laerm;48586;50.122;18.972;2023-04-23T07:42:25;46.38;38.30;58.66;;
77135;Laerm;48586;50.122;18.972;2023-04-23T07:44:32;45.03;37.16;55.60;;
77135;Laerm;48586;50.122;18.972;2023-04-23T07:46:38;48.32;37.97;56.98;;
77135;Laerm;48586;50.122;18.972;2023-04-23T07:48:43;46.55;37.52;63.85;;
77135;Laerm;48586;50.122;18.972;2023-04-23T07:50:48;47.22;38.21;58.60;;
77135;Laerm;48586;50.122;18.972;2023-04-23T07:52:52;45.81;37.43;58.69;;
77135;Laerm;48586;50.122;18.972;2023-04-23T07:54:57;45.54;37.53;58.06;;
77135;Laerm;48586;50.122;18.972;2023-04-23T07:57:02;51.69;41.19;68.47;;
77135;Laerm;48586;50.122;18.972;2023-04-23T07:59:07;52.33;39.29;69.01;;
77135;Laerm;48586;50.122;18.972;2023-04-23T08:01:14;50.99;38.68;71.43;;
77135;Laerm;48586;50.122;18.972;2023-04-23T08:03:21;47.57;39.04;69.24;;
77135;Laerm;48586;50.122;18.972;2023-04-23T08:05:25;45.50;38.78;62.16;;
77135;Laerm;48586;50.122;18.972;2023-04-23T08:07:30;47.75;37.78;58.43;;
77135;Laerm;48586;50.122;18.972;2023-04-23T08:09:35;47.73;38.16;66.00;;
77135;Laerm;48586;50.122;18.972;2023-04-23T08:11:40;48.30;40.35;58.99;;
77135;Laerm;48586;50.122;18.972;2023-04-23T08:13:46;52.53;39.33;72.74;;
77135;Laerm;48586;50.122;18.972;2023-04-23T08:15:51;47.07;38.05;60.30;;
77135;Laerm;48586;50.122;18.972;2023-04-23T08:17:59;50.41;40.14;60.25;;
77135;Laerm;48586;50.122;18.972;2023-04-23T08:20:04;47.63;40.97;58.90;;
77135;Laerm;48586;50.122;18.972;2023-04-23T08:22:10;47.82;39.35;67.60;;
77135;Laerm;48586;50.122;18.972;2023-04-23T08:24:16;46.59;39.98;63.05;;
77135;Laerm;48586;50.122;18.972;2023-04-23T08:26:20;49.87;40.26;68.64;;
77135;Laerm;48586;50.122;18.972;2023-04-23T08:28:25;52.31;44.10;70.37;;
77135;Laerm;48586;50.122;18.972;2023-04-23T08:30:31;52.89;41.93;74.11;;
77135;Laerm;48586;50.122;18.972;2023-04-23T08:32:35;47.39;38.92;59.10;;
77135;Laerm;48586;50.122;18.972;2023-04-23T08:34:44;47.89;40.60;68.79;;
77135;Laerm;48586;50.122;18.972;2023-04-23T08:36:48;47.20;40.05;67.15;;
77135;Laerm;48586;50.122;18.972;2023-04-23T08:38:52;51.45;41.89;70.07;;
77135;Laerm;48586;50.122;18.972;2023-04-23T08:40:58;52.00;38.09;73.21;;
77135;Laerm;48586;50.122;18.972;2023-04-23T08:43:10;48.73;40.48;65.97;;
77135;Laerm;48586;50.122;18.972;2023-04-23T08:45:18;48.63;42.11;59.35;;
77135;Laerm;48586;50.122;18.972;2023-04-23T08:47:26;73.62;41.11;87.26;;
77135;Laerm;48586;50.122;18.972;2023-04-23T08:49:44;70.02;40.66;84.68;;
77135;Laerm;48586;50.122;18.972;2023-04-23T08:51:52;50.10;41.18;72.45;;
77135;Laerm;48586;50.122;18.972;2023-04-23T08:54:03;47.92;38.14;66.21;;
77135;Laerm;48586;50.122;18.972;2023-04-23T08:56:09;46.84;39.10;59.96;;
77135;Laerm;48586;50.122;18.972;2023-04-23T08:58:15;48.99;38.38;66.77;;
77135;Laerm;48586;50.122;18.972;2023-04-23T09:00:22;53.29;38.19;77.62;;
77135;Laerm;48586;50.122;18.972;2023-04-23T09:02:27;46.12;38.06;63.51;;
77135;Laerm;48586;50.122;18.972;2023-04-23T09:04:33;46.89;38.18;57.61;;
77135;Laerm;48586;50.122;18.972;2023-04-23T09:06:42;47.06;37.78;56.31;;
77135;Laerm;48586;50.122;18.972;2023-04-23T09:08:47;48.39;37.75;62.13;;
77135;Laerm;48586;50.122;18.972;2023-04-23T09:10:55;48.03;39.43;63.64;;
77135;Laerm;48586;50.122;18.972;2023-04-23T09:13:02;48.54;41.08;59.28;;
77135;Laerm;48586;50.122;18.972;2023-04-23T09:15:09;48.22;38.90;58.85;;
77135;Laerm;48586;50.122;18.972;2023-04-23T09:17:18;47.77;38.53;62.72;;
77135;Laerm;48586;50.122;18.972;2023-04-23T09:19:25;50.65;41.26;67.90;;
77135;Laerm;48586;50.122;18.972;2023-04-23T09:21:32;50.94;39.47;68.55;;
77135;Laerm;48586;50.122;18.972;2023-04-23T09:23:42;45.76;37.75;64.08;;
77135;Laerm;48586;50.122;18.972;2023-04-23T09:25:48;49.41;39.67;62.34;;
77135;Laerm;48586;50.122;18.972;2023-04-23T09:27:53;48.61;39.15;69.23;;
77135;Laerm;48586;50.122;18.972;2023-04-23T09:29:59;49.79;39.74;72.14;;
77135;Laerm;48586;50.122;18.972;2023-04-23T09:32:08;46.83;38.51;62.70;;
77135;Laerm;48586;50.122;18.972;2023-04-23T09:34:15;47.64;37.55;68.00;;
77135;Laerm;48586;50.122;18.972;2023-04-23T09:36:22;49.86;40.31;70.52;;
77135;Laerm;48586;50.122;18.972;2023-04-23T09:38:29;49.39;38.05;67.34;;
77135;Laerm;48586;50.122;18.972;2023-04-23T09:40:37;53.02;38.69;71.31;;
77135;Laerm;48586;50.122;18.972;2023-04-23T09:42:48;47.65;37.80;65.37;;
77135;Laerm;48586;50.122;18.972;2023-04-23T09:44:58;46.97;40.06;61.89;;
77135;Laerm;48586;50.122;18.972;2023-04-23T09:47:08;54.89;40.08;71.04;;
77135;Laerm;48586;50.122;18.972;2023-04-23T09:49:15;49.37;40.08;64.98;;
77135;Laerm;48586;50.122;18.972;2023-04-23T09:51:23;47.96;40.11;61.31;;
77135;Laerm;48586;50.122;18.972;2023-04-23T09:53:29;46.53;38.27;57.01;;
77135;Laerm;48586;50.122;18.972;2023-04-23T09:55:46;51.02;39.90;66.42;;
77135;Laerm;48586;50.122;18.972;2023-04-23T09:57:53;49.14;39.36;63.02;;
77135;Laerm;48586;50.122;18.972;2023-04-23T10:00:14;47.04;37.70;64.31;;
77135;Laerm;48586;50.122;18.972;2023-04-23T10:02:26;46.79;37.61;65.68;;
77135;Laerm;48586;50.122;18.972;2023-04-23T10:04:38;47.55;38.44;58.81;;
77135;Laerm;48586;50.122;18.972;2023-04-23T10:06:43;49.71;42.97;67.88;;
77135;Laerm;48586;50.122;18.972;2023-04-23T10:08:48;53.45;41.75;73.98;;
77135;Laerm;48586;50.122;18.972;2023-04-23T10:10:57;49.20;39.86;67.68;;
77135;Laerm;48586;50.122;18.972;2023-04-23T10:13:02;47.00;38.65;57.20;;
77135;Laerm;48586;50.122;18.972;2023-04-23T10:15:09;52.46;38.61;72.31;;
77135;Laerm;48586;50.122;18.972;2023-04-23T10:17:16;59.22;38.62;75.66;;
77135;Laerm;48586;50.122;18.972;2023-04-23T10:19:23;53.41;38.57;69.41;;
77135;Laerm;48586;50.122;18.972;2023-04-23T10:21:31;46.87;38.42;63.57;;
77135;Laerm;48586;50.122;18.972;2023-04-23T10:23:43;45.61;37.75;58.26;;
77135;Laerm;48586;50.122;18.972;2023-04-23T10:25:52;49.02;38.19;61.30;;
77135;Laerm;48586;50.122;18.972;2023-04-23T10:28:03;50.87;39.32;72.34;;
77135;Laerm;48586;50.122;18.972;2023-04-23T10:30:13;48.22;38.43;61.95;;
77135;Laerm;48586;50.122;18.972;2023-04-23T10:32:20;44.89;39.03;61.24;;
77135;Laerm;48586;50.122;18.972;2023-04-23T10:34:28;47.01;38.95;59.45;;
77135;Laerm;48586;50.122;18.972;2023-04-23T10:36:35;48.49;38.21;67.32;;
77135;Laerm;48586;50.122;18.972;2023-04-23T10:38:43;51.35;39.42;66.57;;
77135;Laerm;48586;50.122;18.972;2023-04-23T10:40:54;48.70;39.41;70.11;;
77135;Laerm;48586;50.122;18.972;2023-04-23T10:43:03;47.12;39.95;58.14;;
77135;Laerm;48586;50.122;18.972;2023-04-23T10:45:13;49.46;38.30;68.60;;
77135;Laerm;48586;50.122;18.972;2023-04-23T10:47:19;46.54;36.69;65.86;;
77135;Laerm;48586;50.122;18.972;2023-04-23T10:49:30;47.63;37.65;71.72;;
77135;Laerm;48586;50.122;18.972;2023-04-23T10:51:35;54.62;39.06;74.29;;
77135;Laerm;48586;50.122;18.972;2023-04-23T10:53:41;46.72;37.79;60.26;;
77135;Laerm;48586;50.122;18.972;2023-04-23T10:55:46;48.55;38.16;70.98;;
77135;Laerm;48586;50.122;18.972;2023-04-23T10:58:05;48.05;38.46;66.37;;
77135;Laerm;48586;50.122;18.972;2023-04-23T11:00:12;48.60;37.52;67.35;;
77135;Laerm;48586;50.122;18.972;2023-04-23T11:02:18;52.86;39.33;68.35;;
77135;Laerm;48586;50.122;18.972;2023-04-23T11:04:25;47.57;39.67;64.29;;
77135;Laerm;48586;50.122;18.972;2023-04-23T11:09:37;50.30;38.33;74.53;;
77135;Laerm;48586;50.122;18.972;2023-04-23T11:11:42;48.01;38.48;60.76;;
77135;Laerm;48586;50.122;18.972;2023-04-23T11:13:53;49.72;37.87;66.76;;
77135;Laerm;48586;50.122;18.972;2023-04-23T11:16:15;54.03;41.63;74.92;;
77135;Laerm;48586;50.122;18.972;2023-04-23T11:18:23;45.49;38.30;59.45;;
77135;Laerm;48586;50.122;18.972;2023-04-23T11:20:27;49.84;40.19;65.81;;
77135;Laerm;48586;50.122;18.972;2023-04-23T11:22:35;48.80;38.10;64.90;;
77135;Laerm;48586;50.122;18.972;2023-04-23T11:24:41;46.13;38.73;55.79;;
77135;Laerm;48586;50.122;18.972;2023-04-23T11:26:50;47.16;38.31;57.76;;
77135;Laerm;48586;50.122;18.972;2023-04-23T11:28:59;47.88;39.16;55.57;;
77135;Laerm;48586;50.122;18.972;2023-04-23T11:31:04;46.15;38.27;55.34;;
77135;Laerm;48586;50.122;18.972;2023-04-23T11:33:09;45.89;38.26;57.87;;
77135;Laerm;48586;50.122;18.972;2023-04-23T11:35:15;48.16;39.59;63.41;;
77135;Laerm;48586;50.122;18.972;2023-04-23T11:37:19;46.63;38.01;57.34;;
77135;Laerm;48586;50.122;18.972;2023-04-23T11:39:24;48.20;39.87;63.79;;